Promitheas — SYIJ — position and weather

sailwx.info

Track history (hours):
 
Tides and Currents Weather Stations Pressure Air Temp Water Temp Dewpoint Dewpoint Depression Visibility Wind Speed Wind Dir Waves Ship Positions

Promitheas

Last reported at 2015-May-19 12:03 UTC. Time now 2015-May-24 21:28 UTC.
Position N 54°10' E 004°36'.

Length 249 m; draft 8.5 m.

Type: Tanker. MMSI: 240547000.

Date/timePositionNaut miles runAvg speedWind from/ knotsBaromVisibWave heightAir tempDewpointWater temp
2015-May-19 12:03N 54°10' E 004°36'1313.3
2015-May-19 11:04N 53°57' E 004°37'11711.1
2015-May-19 00:33N 52°06' E 003°40'1111.5
2015-May-18 23:34N 52°02' E 003°58'9 8.1
2015-May-18 22:28N 51°57' E 004°10'0 0.0
2015-May-18 21:31N 51°57' E 004°10'0 0.0
2015-May-18 20:31N 51°57' E 004°10'0 0.0
2015-May-18 19:31N 51°57' E 004°10'0 0.0
2015-May-18 18:31N 51°57' E 004°10'0 0.0
2015-May-18 17:31N 51°57' E 004°10'0 0.0
2015-May-18 16:31N 51°57' E 004°10'0 0.0
2015-May-18 15:31N 51°57' E 004°10'0 0.0
2015-May-18 14:31N 51°57' E 004°10'0 0.0
2015-May-18 13:31N 51°57' E 004°10'0 0.0
2015-May-18 12:31N 51°57' E 004°10'0 0.0
2015-May-18 11:31N 51°57' E 004°10'0 0.0
2015-May-18 10:31N 51°57' E 004°10'0 0.0
2015-May-18 09:31N 51°57' E 004°10'0 0.0
2015-May-18 08:31N 51°57' E 004°10'0 0.0
2015-May-18 07:31N 51°57' E 004°10'0 0.0
2015-May-18 06:31N 51°57' E 004°10'0 0.0
2015-May-18 05:31N 51°57' E 004°10'0 0.0
2015-May-18 04:31N 51°57' E 004°10'0 0.0
2015-May-18 03:31N 51°57' E 004°10'0 0.0
2015-May-18 02:31N 51°57' E 004°10'0 0.0
2015-May-18 01:31N 51°57' E 004°10'0 0.0
2015-May-18 00:31N 51°57' E 004°10'0 0.0
2015-May-17 23:31N 51°57' E 004°10'0 0.1
2015-May-17 22:31N 51°57' E 004°10'5 5.2
2015-May-17 21:34N 51°59' E 004°03'1010.1
2015-May-17 20:33N 51°59' E 003°46'10 9.1
2015-May-17 19:25N 51°56' E 003°30'3 0.9
2015-May-17 16:17N 51°55' E 003°27'0 0.0
2015-May-17 14:11N 51°55' E 003°27'0 0.0
2015-May-17 13:32N 51°55' E 003°27'0 0.0
2015-May-17 12:23N 51°55' E 003°27'0 0.1
2015-May-17 08:27N 51°54' E 003°27'0 0.0
2015-May-17 07:32N 51°54' E 003°27'0 0.1
2015-May-17 05:29N 51°54' E 003°27'0 0.2
2015-May-17 04:32N 51°55' E 003°27'0 0.0
2015-May-17 03:29N 51°55' E 003°27'0 0.0
2015-May-17 02:32N 51°55' E 003°27'0 0.0
2015-May-17 01:20N 51°55' E 003°27'0 0.0
2015-May-17 00:32N 51°55' E 003°27'0 0.1
2015-May-16 22:17N 51°54' E 003°27'0 0.1
2015-May-16 20:17N 51°54' E 003°27'0 0.0
2015-May-16 19:23N 51°54' E 003°27'0 0.0
2015-May-16 18:29N 51°54' E 003°27'0 0.0
2015-May-16 17:23N 51°54' E 003°27'0 0.1
2015-May-16 15:08N 51°55' E 003°27'0 0.0
2015-May-16 14:33N 51°55' E 003°27'0 0.0
2015-May-16 13:33N 51°55' E 003°27'0 0.0
2015-May-16 12:33N 51°55' E 003°27'0 0.1
2015-May-16 11:33N 51°54' E 003°27'0 0.1
2015-May-16 10:28N 51°54' E 003°27'0 0.2
2015-May-16 09:33N 51°54' E 003°27'0 0.1
2015-May-16 08:29N 51°54' E 003°27'0 0.0
2015-May-16 07:33N 51°54' E 003°27'0 0.4
2015-May-16 06:33N 51°54' E 003°26'8 8.4
2015-May-16 05:33N 51°54' E 003°12'49 6.9
2015-May-15 22:25N 52°42' E 003°05'4710.8
2015-May-15 18:03N 53°27' E 003°32'511.0
2015-May-15 17:33N 53°32' E 003°35'1610.9
2015-May-15 16:07N 53°46' E 003°47'5810.1
2015-May-15 10:19N 54°42' E 004°15'  
2015-May-10 22:23N 54°07' E 004°42'810.2
2015-May-10 21:33N 53°58' E 004°41'7510.7
2015-May-10 14:31N 52°59' E 003°23'1110.3
2015-May-10 13:28N 52°49' E 003°16'9 9.7
2015-May-10 12:33N 52°41' E 003°09'20 9.7
2015-May-10 10:28N 52°22' E 002°56'2211.0
2015-May-10 08:28N 52°11' E 003°26'1010.8
2015-May-10 07:32N 52°06' E 003°40'9 9.5
2015-May-10 06:33N 52°02' E 003°55'7 7.3
2015-May-10 05:33N 51°58' E 004°04'0 0.0
2015-May-10 04:30N 51°58' E 004°04'0 0.0
2015-May-10 03:33N 51°58' E 004°04'0 0.0
2015-May-10 02:33N 51°58' E 004°04'0 0.0
2015-May-10 01:33N 51°58' E 004°04'0 0.0
2015-May-10 00:30N 51°58' E 004°04'0 0.0
2015-May-09 23:33N 51°58' E 004°04'0 0.0
2015-May-09 22:33N 51°58' E 004°04'0 0.0
2015-May-09 21:33N 51°58' E 004°04'0 0.0
2015-May-09 20:33N 51°58' E 004°04'0 0.0
2015-May-09 19:30N 51°58' E 004°04'0 0.0
2015-May-09 18:33N 51°58' E 004°04'0 0.0
2015-May-09 17:33N 51°58' E 004°04'0 0.0
2015-May-09 16:30N 51°58' E 004°04'0 0.0
2015-May-09 15:33N 51°58' E 004°04'0 0.0
2015-May-09 14:33N 51°58' E 004°04'0 0.0
2015-May-09 13:30N 51°58' E 004°04'0 0.0
2015-May-09 12:33N 51°58' E 004°04'  
Track history (hours):
 
Tides and Currents Weather Stations Pressure Air Temp Water Temp Dewpoint Dewpoint Depression Visibility Wind Speed Wind Dir Waves Ship Positions

Promitheas

Last reported at 2015-May-19 12:03 UTC. Time now 2015-May-24 21:28 UTC.
Position N 54°10' E 004°36'.

Length 249 m; draft 8.5 m.

Type: Tanker. MMSI: 240547000.

Date/timePositionNaut miles runAvg speedWind from/ knotsBaromVisibWave heightAir tempDewpointWater temp
2015-May-19 12:03N 54°10' E 004°36'1313.3
2015-May-19 11:04N 53°57' E 004°37'11711.1
2015-May-19 00:33N 52°06' E 003°40'1111.5
2015-May-18 23:34N 52°02' E 003°58'9 8.1
2015-May-18 22:28N 51°57' E 004°10'0 0.0
2015-May-18 21:31N 51°57' E 004°10'0 0.0
2015-May-18 20:31N 51°57' E 004°10'0 0.0
2015-May-18 19:31N 51°57' E 004°10'0 0.0
2015-May-18 18:31N 51°57' E 004°10'0 0.0
2015-May-18 17:31N 51°57' E 004°10'0 0.0
2015-May-18 16:31N 51°57' E 004°10'0 0.0
2015-May-18 15:31N 51°57' E 004°10'0 0.0
2015-May-18 14:31N 51°57' E 004°10'0 0.0
2015-May-18 13:31N 51°57' E 004°10'0 0.0
2015-May-18 12:31N 51°57' E 004°10'0 0.0
2015-May-18 11:31N 51°57' E 004°10'0 0.0
2015-May-18 10:31N 51°57' E 004°10'0 0.0
2015-May-18 09:31N 51°57' E 004°10'0 0.0
2015-May-18 08:31N 51°57' E 004°10'0 0.0
2015-May-18 07:31N 51°57' E 004°10'0 0.0
2015-May-18 06:31N 51°57' E 004°10'0 0.0
2015-May-18 05:31N 51°57' E 004°10'0 0.0
2015-May-18 04:31N 51°57' E 004°10'0 0.0
2015-May-18 03:31N 51°57' E 004°10'0 0.0
2015-May-18 02:31N 51°57' E 004°10'0 0.0
2015-May-18 01:31N 51°57' E 004°10'0 0.0
2015-May-18 00:31N 51°57' E 004°10'0 0.0
2015-May-17 23:31N 51°57' E 004°10'0 0.1
2015-May-17 22:31N 51°57' E 004°10'5 5.2
2015-May-17 21:34N 51°59' E 004°03'1010.1
2015-May-17 20:33N 51°59' E 003°46'10 9.1
2015-May-17 19:25N 51°56' E 003°30'3 0.9
2015-May-17 16:17N 51°55' E 003°27'0 0.0
2015-May-17 14:11N 51°55' E 003°27'0 0.0
2015-May-17 13:32N 51°55' E 003°27'0 0.0
2015-May-17 12:23N 51°55' E 003°27'0 0.1
2015-May-17 08:27N 51°54' E 003°27'0 0.0
2015-May-17 07:32N 51°54' E 003°27'0 0.1
2015-May-17 05:29N 51°54' E 003°27'0 0.2
2015-May-17 04:32N 51°55' E 003°27'0 0.0
2015-May-17 03:29N 51°55' E 003°27'0 0.0
2015-May-17 02:32N 51°55' E 003°27'0 0.0
2015-May-17 01:20N 51°55' E 003°27'0 0.0
2015-May-17 00:32N 51°55' E 003°27'0 0.1
2015-May-16 22:17N 51°54' E 003°27'0 0.1
2015-May-16 20:17N 51°54' E 003°27'0 0.0
2015-May-16 19:23N 51°54' E 003°27'0 0.0
2015-May-16 18:29N 51°54' E 003°27'0 0.0
2015-May-16 17:23N 51°54' E 003°27'0 0.1
2015-May-16 15:08N 51°55' E 003°27'0 0.0
2015-May-16 14:33N 51°55' E 003°27'0 0.0
2015-May-16 13:33N 51°55' E 003°27'0 0.0
2015-May-16 12:33N 51°55' E 003°27'0 0.1
2015-May-16 11:33N 51°54' E 003°27'0 0.1
2015-May-16 10:28N 51°54' E 003°27'0 0.2
2015-May-16 09:33N 51°54' E 003°27'0 0.1
2015-May-16 08:29N 51°54' E 003°27'0 0.0
2015-May-16 07:33N 51°54' E 003°27'0 0.4
2015-May-16 06:33N 51°54' E 003°26'8 8.4
2015-May-16 05:33N 51°54' E 003°12'49 6.9
2015-May-15 22:25N 52°42' E 003°05'4710.8
2015-May-15 18:03N 53°27' E 003°32'511.0
2015-May-15 17:33N 53°32' E 003°35'1610.9
2015-May-15 16:07N 53°46' E 003°47'5810.1
2015-May-15 10:19N 54°42' E 004°15'  
2015-May-10 22:23N 54°07' E 004°42'810.2
2015-May-10 21:33N 53°58' E 004°41'7510.7
2015-May-10 14:31N 52°59' E 003°23'1110.3
2015-May-10 13:28N 52°49' E 003°16'9 9.7
2015-May-10 12:33N 52°41' E 003°09'20 9.7
2015-May-10 10:28N 52°22' E 002°56'2211.0
2015-May-10 08:28N 52°11' E 003°26'1010.8
2015-May-10 07:32N 52°06' E 003°40'9 9.5
2015-May-10 06:33N 52°02' E 003°55'7 7.3
2015-May-10 05:33N 51°58' E 004°04'0 0.0
2015-May-10 04:30N 51°58' E 004°04'0 0.0
2015-May-10 03:33N 51°58' E 004°04'0 0.0
2015-May-10 02:33N 51°58' E 004°04'0 0.0
2015-May-10 01:33N 51°58' E 004°04'0 0.0
2015-May-10 00:30N 51°58' E 004°04'0 0.0
2015-May-09 23:33N 51°58' E 004°04'0 0.0
2015-May-09 22:33N 51°58' E 004°04'0 0.0
2015-May-09 21:33N 51°58' E 004°04'0 0.0
2015-May-09 20:33N 51°58' E 004°04'0 0.0
2015-May-09 19:30N 51°58' E 004°04'0 0.0
2015-May-09 18:33N 51°58' E 004°04'0 0.0
2015-May-09 17:33N 51°58' E 004°04'0 0.0
2015-May-09 16:30N 51°58' E 004°04'0 0.0
2015-May-09 15:33N 51°58' E 004°04'0 0.0
2015-May-09 14:33N 51°58' E 004°04'0 0.0
2015-May-09 13:30N 51°58' E 004°04'0 0.0
2015-May-09 12:33N 51°58' E 004°04'  

Dump ship's entire track history